sensor_id;sensor_type;location;lat;lon;timestamp;temperature;humidity
32187;DHT22;18686;53.084;8.872;2023-02-13T00:00:45;8.20;99.90
32187;DHT22;18686;53.084;8.872;2023-02-13T00:03:13;8.20;99.90
32187;DHT22;18686;53.084;8.872;2023-02-13T00:05:42;8.20;99.90
32187;DHT22;18686;53.084;8.872;2023-02-13T00:08:10;8.20;99.90
32187;DHT22;18686;53.084;8.872;2023-02-13T00:10:38;8.20;99.90
32187;DHT22;18686;53.084;8.872;2023-02-13T00:13:08;8.20;99.90
32187;DHT22;18686;53.084;8.872;2023-02-13T00:15:36;8.20;99.90
32187;DHT22;18686;53.084;8.872;2023-02-13T00:18:04;8.20;99.90
32187;DHT22;18686;53.084;8.872;2023-02-13T00:20:32;8.20;99.90
32187;DHT22;18686;53.084;8.872;2023-02-13T00:23:01;8.20;99.90
32187;DHT22;18686;53.084;8.872;2023-02-13T00:25:29;8.20;99.90
32187;DHT22;18686;53.084;8.872;2023-02-13T00:27:57;8.10;99.90
32187;DHT22;18686;53.084;8.872;2023-02-13T00:30:27;8.10;99.90
32187;DHT22;18686;53.084;8.872;2023-02-13T00:32:56;8.10;99.90
32187;DHT22;18686;53.084;8.872;2023-02-13T00:35:24;8.10;99.90
32187;DHT22;18686;53.084;8.872;2023-02-13T00:37:52;8.10;99.90
32187;DHT22;18686;53.084;8.872;2023-02-13T00:40:23;8.10;99.90
32187;DHT22;18686;53.084;8.872;2023-02-13T00:42:52;8.10;99.90
32187;DHT22;18686;53.084;8.872;2023-02-13T00:45:20;8.10;99.90
32187;DHT22;18686;53.084;8.872;2023-02-13T00:47:49;8.10;99.90
32187;DHT22;18686;53.084;8.872;2023-02-13T00:50:19;8.10;99.90
32187;DHT22;18686;53.084;8.872;2023-02-13T00:52:48;8.10;99.90
32187;DHT22;18686;53.084;8.872;2023-02-13T00:55:17;8.10;99.90
32187;DHT22;18686;53.084;8.872;2023-02-13T00:57:45;8.10;99.90
32187;DHT22;18686;53.084;8.872;2023-02-13T01:00:15;8.10;99.90
32187;DHT22;18686;53.084;8.872;2023-02-13T01:02:43;8.10;99.90
32187;DHT22;18686;53.084;8.872;2023-02-13T01:05:13;8.10;99.90
32187;DHT22;18686;53.084;8.872;2023-02-13T01:07:41;8.10;99.90
32187;DHT22;18686;53.084;8.872;2023-02-13T01:10:11;8.10;99.90
32187;DHT22;18686;53.084;8.872;2023-02-13T01:12:40;8.10;99.90
32187;DHT22;18686;53.084;8.872;2023-02-13T01:15:08;8.10;99.90
32187;DHT22;18686;53.084;8.872;2023-02-13T01:17:37;8.10;99.90
32187;DHT22;18686;53.084;8.872;2023-02-13T01:20:06;8.10;99.90
32187;DHT22;18686;53.084;8.872;2023-02-13T01:22:36;8.10;99.90
32187;DHT22;18686;53.084;8.872;2023-02-13T01:25:04;8.10;99.90
32187;DHT22;18686;53.084;8.872;2023-02-13T01:27:33;8.10;99.90
32187;DHT22;18686;53.084;8.872;2023-02-13T01:30:01;8.10;99.90
32187;DHT22;18686;53.084;8.872;2023-02-13T01:32:29;8.10;99.90
32187;DHT22;18686;53.084;8.872;2023-02-13T01:34:58;8.10;99.90
32187;DHT22;18686;53.084;8.872;2023-02-13T01:37:26;8.10;99.90
32187;DHT22;18686;53.084;8.872;2023-02-13T01:39:55;8.00;99.90
32187;DHT22;18686;53.084;8.872;2023-02-13T01:42:25;8.00;99.90
32187;DHT22;18686;53.084;8.872;2023-02-13T01:44:55;8.00;99.90
32187;DHT22;18686;53.084;8.872;2023-02-13T01:47:26;8.00;99.90
32187;DHT22;18686;53.084;8.872;2023-02-13T01:50:03;8.00;99.90
32187;DHT22;18686;53.084;8.872;2023-02-13T01:52:35;8.00;99.90
32187;DHT22;18686;53.084;8.872;2023-02-13T01:55:07;8.00;99.90
32187;DHT22;18686;53.084;8.872;2023-02-13T01:57:38;8.00;99.90
32187;DHT22;18686;53.084;8.872;2023-02-13T02:00:09;8.00;99.90
32187;DHT22;18686;53.084;8.872;2023-02-13T02:02:47;8.00;99.90
32187;DHT22;18686;53.084;8.872;2023-02-13T02:05:23;8.00;99.90
32187;DHT22;18686;53.084;8.872;2023-02-13T02:07:54;8.00;99.90
32187;DHT22;18686;53.084;8.872;2023-02-13T02:10:25;8.00;99.90
32187;DHT22;18686;53.084;8.872;2023-02-13T02:13:00;7.90;99.90
32187;DHT22;18686;53.084;8.872;2023-02-13T02:15:32;8.00;99.90
32187;DHT22;18686;53.084;8.872;2023-02-13T02:18:00;8.00;99.90
32187;DHT22;18686;53.084;8.872;2023-02-13T02:23:48;7.90;99.90
32187;DHT22;18686;53.084;8.872;2023-02-13T02:29:54;7.90;99.90
32187;DHT22;18686;53.084;8.872;2023-02-13T02:32:47;7.90;99.90
32187;DHT22;18686;53.084;8.872;2023-02-13T02:35:26;7.80;99.90
32187;DHT22;18686;53.084;8.872;2023-02-13T02:38:11;7.80;99.90
32187;DHT22;18686;53.084;8.872;2023-02-13T02:40:52;7.90;99.90
32187;DHT22;18686;53.084;8.872;2023-02-13T02:43:33;7.90;99.90
32187;DHT22;18686;53.084;8.872;2023-02-13T02:46:12;7.80;99.90
32187;DHT22;18686;53.084;8.872;2023-02-13T02:48:49;7.90;99.90
32187;DHT22;18686;53.084;8.872;2023-02-13T02:51:46;7.90;99.90
32187;DHT22;18686;53.084;8.872;2023-02-13T02:54:23;7.80;99.90
32187;DHT22;18686;53.084;8.872;2023-02-13T02:57:13;7.80;99.90
32187;DHT22;18686;53.084;8.872;2023-02-13T02:59:48;7.80;99.90
32187;DHT22;18686;53.084;8.872;2023-02-13T03:02:35;7.80;99.90
32187;DHT22;18686;53.084;8.872;2023-02-13T03:05:26;7.80;99.90
32187;DHT22;18686;53.084;8.872;2023-02-13T03:08:14;7.80;99.90
32187;DHT22;18686;53.084;8.872;2023-02-13T03:11:03;7.80;99.90
32187;DHT22;18686;53.084;8.872;2023-02-13T03:13:50;7.80;99.90
32187;DHT22;18686;53.084;8.872;2023-02-13T03:16:20;7.80;99.90
32187;DHT22;18686;53.084;8.872;2023-02-13T03:19:12;7.80;99.90
32187;DHT22;18686;53.084;8.872;2023-02-13T03:22:07;7.80;99.90
32187;DHT22;18686;53.084;8.872;2023-02-13T03:24:52;7.80;99.90
32187;DHT22;18686;53.084;8.872;2023-02-13T03:27:30;7.80;99.90
32187;DHT22;18686;53.084;8.872;2023-02-13T03:30:25;7.80;99.90
32187;DHT22;18686;53.084;8.872;2023-02-13T03:33:05;7.80;99.90
32187;DHT22;18686;53.084;8.872;2023-02-13T03:35:41;7.80;99.90
32187;DHT22;18686;53.084;8.872;2023-02-13T03:38:41;7.70;99.90
32187;DHT22;18686;53.084;8.872;2023-02-13T03:41:14;7.70;99.90
32187;DHT22;18686;53.084;8.872;2023-02-13T03:43:59;7.70;99.90
32187;DHT22;18686;53.084;8.872;2023-02-13T03:46:32;7.70;99.90
32187;DHT22;18686;53.084;8.872;2023-02-13T03:49:03;7.80;99.90
32187;DHT22;18686;53.084;8.872;2023-02-13T03:51:54;7.80;99.90
32187;DHT22;18686;53.084;8.872;2023-02-13T03:54:27;7.80;99.90
32187;DHT22;18686;53.084;8.872;2023-02-13T03:57:19;7.70;99.90
32187;DHT22;18686;53.084;8.872;2023-02-13T04:00:09;7.70;99.90
32187;DHT22;18686;53.084;8.872;2023-02-13T04:02:50;7.70;99.90
32187;DHT22;18686;53.084;8.872;2023-02-13T04:05:22;7.70;99.90
32187;DHT22;18686;53.084;8.872;2023-02-13T04:07:52;7.70;99.90
32187;DHT22;18686;53.084;8.872;2023-02-13T04:10:21;7.70;99.90
32187;DHT22;18686;53.084;8.872;2023-02-13T04:12:58;7.70;99.90
32187;DHT22;18686;53.084;8.872;2023-02-13T04:15:32;7.70;99.90
32187;DHT22;18686;53.084;8.872;2023-02-13T04:18:06;7.70;99.90
32187;DHT22;18686;53.084;8.872;2023-02-13T04:20:37;7.70;99.90
32187;DHT22;18686;53.084;8.872;2023-02-13T04:23:07;7.70;99.90
32187;DHT22;18686;53.084;8.872;2023-02-13T04:25:39;7.70;99.90
32187;DHT22;18686;53.084;8.872;2023-02-13T04:28:08;7.70;99.90
32187;DHT22;18686;53.084;8.872;2023-02-13T04:30:36;7.70;99.90
32187;DHT22;18686;53.084;8.872;2023-02-13T04:33:04;7.70;99.90
32187;DHT22;18686;53.084;8.872;2023-02-13T04:35:32;7.70;99.90
32187;DHT22;18686;53.084;8.872;2023-02-13T04:38:01;7.70;99.90
32187;DHT22;18686;53.084;8.872;2023-02-13T04:40:29;7.70;99.90
32187;DHT22;18686;53.084;8.872;2023-02-13T04:42:59;7.80;99.90
32187;DHT22;18686;53.084;8.872;2023-02-13T04:45:28;7.70;99.90
32187;DHT22;18686;53.084;8.872;2023-02-13T04:47:56;7.70;99.90
32187;DHT22;18686;53.084;8.872;2023-02-13T04:50:24;7.70;99.90
32187;DHT22;18686;53.084;8.872;2023-02-13T04:52:54;7.70;99.90
32187;DHT22;18686;53.084;8.872;2023-02-13T04:55:23;7.70;99.90
32187;DHT22;18686;53.084;8.872;2023-02-13T04:57:51;7.70;99.90
32187;DHT22;18686;53.084;8.872;2023-02-13T05:00:23;7.70;99.90
32187;DHT22;18686;53.084;8.872;2023-02-13T05:02:52;7.70;99.90
32187;DHT22;18686;53.084;8.872;2023-02-13T05:05:20;7.70;99.90
32187;DHT22;18686;53.084;8.872;2023-02-13T05:07:48;7.70;99.90
32187;DHT22;18686;53.084;8.872;2023-02-13T05:10:17;7.80;99.90
32187;DHT22;18686;53.084;8.872;2023-02-13T05:12:46;7.80;99.90
32187;DHT22;18686;53.084;8.872;2023-02-13T05:15:15;7.80;99.90
32187;DHT22;18686;53.084;8.872;2023-02-13T05:17:45;7.80;99.90
32187;DHT22;18686;53.084;8.872;2023-02-13T05:20:13;7.80;99.90
32187;DHT22;18686;53.084;8.872;2023-02-13T05:22:45;7.80;99.90
32187;DHT22;18686;53.084;8.872;2023-02-13T05:25:31;7.80;99.90
32187;DHT22;18686;53.084;8.872;2023-02-13T05:27:59;7.80;99.90
32187;DHT22;18686;53.084;8.872;2023-02-13T05:30:28;7.80;99.90
32187;DHT22;18686;53.084;8.872;2023-02-13T05:32:57;7.80;99.90
32187;DHT22;18686;53.084;8.872;2023-02-13T05:35:25;7.80;99.90
32187;DHT22;18686;53.084;8.872;2023-02-13T05:37:53;7.80;99.90
32187;DHT22;18686;53.084;8.872;2023-02-13T05:40:21;7.80;99.90
32187;DHT22;18686;53.084;8.872;2023-02-13T05:42:53;7.80;99.90
32187;DHT22;18686;53.084;8.872;2023-02-13T05:45:21;7.80;99.90
32187;DHT22;18686;53.084;8.872;2023-02-13T05:47:49;7.80;99.90
32187;DHT22;18686;53.084;8.872;2023-02-13T05:50:19;7.80;99.90
32187;DHT22;18686;53.084;8.872;2023-02-13T05:52:47;7.80;99.90
32187;DHT22;18686;53.084;8.872;2023-02-13T05:55:15;7.80;99.90
32187;DHT22;18686;53.084;8.872;2023-02-13T05:57:43;7.80;99.90
32187;DHT22;18686;53.084;8.872;2023-02-13T06:00:13;7.70;99.90
32187;DHT22;18686;53.084;8.872;2023-02-13T06:02:41;7.70;99.90
32187;DHT22;18686;53.084;8.872;2023-02-13T06:05:09;7.80;99.90
32187;DHT22;18686;53.084;8.872;2023-02-13T06:07:39;7.80;99.90
32187;DHT22;18686;53.084;8.872;2023-02-13T06:10:07;7.80;99.90
32187;DHT22;18686;53.084;8.872;2023-02-13T06:12:35;7.70;99.90
32187;DHT22;18686;53.084;8.872;2023-02-13T06:15:05;7.70;99.90
32187;DHT22;18686;53.084;8.872;2023-02-13T06:17:33;7.70;99.90
32187;DHT22;18686;53.084;8.872;2023-02-13T06:20:02;7.70;99.90
32187;DHT22;18686;53.084;8.872;2023-02-13T06:22:30;7.70;99.90
32187;DHT22;18686;53.084;8.872;2023-02-13T06:24:59;7.70;99.90
32187;DHT22;18686;53.084;8.872;2023-02-13T06:27:27;7.70;99.90
32187;DHT22;18686;53.084;8.872;2023-02-13T06:29:56;7.70;99.90
32187;DHT22;18686;53.084;8.872;2023-02-13T06:32:24;7.80;99.90
32187;DHT22;18686;53.084;8.872;2023-02-13T06:34:52;7.80;99.90
32187;DHT22;18686;53.084;8.872;2023-02-13T06:37:20;7.80;99.90
32187;DHT22;18686;53.084;8.872;2023-02-13T06:39:48;7.80;99.90
32187;DHT22;18686;53.084;8.872;2023-02-13T06:42:18;7.80;99.90
32187;DHT22;18686;53.084;8.872;2023-02-13T06:44:47;7.80;99.90
32187;DHT22;18686;53.084;8.872;2023-02-13T06:47:15;7.80;99.90
32187;DHT22;18686;53.084;8.872;2023-02-13T06:49:43;7.90;99.90
32187;DHT22;18686;53.084;8.872;2023-02-13T06:52:11;7.90;99.90
32187;DHT22;18686;53.084;8.872;2023-02-13T06:54:40;7.90;99.90
32187;DHT22;18686;53.084;8.872;2023-02-13T06:57:14;7.90;99.90
32187;DHT22;18686;53.084;8.872;2023-02-13T06:59:43;7.90;99.90
32187;DHT22;18686;53.084;8.872;2023-02-13T07:02:12;8.00;99.90
32187;DHT22;18686;53.084;8.872;2023-02-13T07:04:40;7.90;99.90
32187;DHT22;18686;53.084;8.872;2023-02-13T07:07:09;8.00;99.90
32187;DHT22;18686;53.084;8.872;2023-02-13T07:09:38;8.00;99.90
32187;DHT22;18686;53.084;8.872;2023-02-13T07:12:07;8.00;99.90
32187;DHT22;18686;53.084;8.872;2023-02-13T07:14:35;8.00;99.90
32187;DHT22;18686;53.084;8.872;2023-02-13T07:17:05;8.00;99.90
32187;DHT22;18686;53.084;8.872;2023-02-13T07:19:33;8.00;99.90
32187;DHT22;18686;53.084;8.872;2023-02-13T07:22:01;8.10;99.90
32187;DHT22;18686;53.084;8.872;2023-02-13T07:24:29;8.10;99.90
32187;DHT22;18686;53.084;8.872;2023-02-13T07:26:59;8.10;99.90
32187;DHT22;18686;53.084;8.872;2023-02-13T07:29:27;8.10;99.90
32187;DHT22;18686;53.084;8.872;2023-02-13T07:31:56;8.10;99.90
32187;DHT22;18686;53.084;8.872;2023-02-13T07:34:25;8.10;99.90
32187;DHT22;18686;53.084;8.872;2023-02-13T07:36:54;8.10;99.90
32187;DHT22;18686;53.084;8.872;2023-02-13T07:39:22;8.20;99.90
32187;DHT22;18686;53.084;8.872;2023-02-13T07:41:50;8.20;99.90
32187;DHT22;18686;53.084;8.872;2023-02-13T07:44:24;8.20;99.90
32187;DHT22;18686;53.084;8.872;2023-02-13T07:46:52;8.20;99.90
32187;DHT22;18686;53.084;8.872;2023-02-13T07:49:20;8.20;99.90
32187;DHT22;18686;53.084;8.872;2023-02-13T07:51:50;8.30;99.90
32187;DHT22;18686;53.084;8.872;2023-02-13T07:54:18;8.30;99.90
32187;DHT22;18686;53.084;8.872;2023-02-13T07:56:46;8.30;99.90
32187;DHT22;18686;53.084;8.872;2023-02-13T07:59:14;8.40;99.90
32187;DHT22;18686;53.084;8.872;2023-02-13T08:01:43;8.40;99.90
32187;DHT22;18686;53.084;8.872;2023-02-13T08:04:11;8.40;99.90
32187;DHT22;18686;53.084;8.872;2023-02-13T08:06:40;8.40;99.90
32187;DHT22;18686;53.084;8.872;2023-02-13T08:09:17;8.50;99.90
32187;DHT22;18686;53.084;8.872;2023-02-13T08:12:07;8.50;99.90
32187;DHT22;18686;53.084;8.872;2023-02-13T08:14:35;8.50;99.90
32187;DHT22;18686;53.084;8.872;2023-02-13T08:17:04;8.50;99.90
32187;DHT22;18686;53.084;8.872;2023-02-13T08:19:32;8.50;99.90
32187;DHT22;18686;53.084;8.872;2023-02-13T08:22:00;8.60;99.90
32187;DHT22;18686;53.084;8.872;2023-02-13T08:24:29;8.60;99.90
32187;DHT22;18686;53.084;8.872;2023-02-13T08:26:59;8.70;99.90
32187;DHT22;18686;53.084;8.872;2023-02-13T08:29:27;8.70;99.90
32187;DHT22;18686;53.084;8.872;2023-02-13T08:31:55;8.80;99.90
32187;DHT22;18686;53.084;8.872;2023-02-13T08:34:23;8.80;99.90
32187;DHT22;18686;53.084;8.872;2023-02-13T08:36:52;8.90;99.90
32187;DHT22;18686;53.084;8.872;2023-02-13T08:39:20;8.90;99.90
32187;DHT22;18686;53.084;8.872;2023-02-13T08:41:49;8.90;99.90
32187;DHT22;18686;53.084;8.872;2023-02-13T08:44:17;9.00;99.90
32187;DHT22;18686;53.084;8.872;2023-02-13T08:46:46;9.00;99.90
32187;DHT22;18686;53.084;8.872;2023-02-13T08:49:14;9.10;99.90
32187;DHT22;18686;53.084;8.872;2023-02-13T08:51:42;9.20;99.90
32187;DHT22;18686;53.084;8.872;2023-02-13T08:54:10;9.20;99.90
32187;DHT22;18686;53.084;8.872;2023-02-13T08:56:39;9.20;99.90
32187;DHT22;18686;53.084;8.872;2023-02-13T08:59:08;9.30;99.90
32187;DHT22;18686;53.084;8.872;2023-02-13T09:01:36;9.30;99.90
32187;DHT22;18686;53.084;8.872;2023-02-13T09:04:05;9.30;99.90
32187;DHT22;18686;53.084;8.872;2023-02-13T09:06:33;9.30;99.90
32187;DHT22;18686;53.084;8.872;2023-02-13T09:09:01;9.30;99.90
32187;DHT22;18686;53.084;8.872;2023-02-13T09:11:30;9.40;99.90
32187;DHT22;18686;53.084;8.872;2023-02-13T09:13:58;9.40;99.90
32187;DHT22;18686;53.084;8.872;2023-02-13T09:16:28;9.40;99.90
32187;DHT22;18686;53.084;8.872;2023-02-13T09:18:56;9.40;99.90
32187;DHT22;18686;53.084;8.872;2023-02-13T09:21:24;9.50;99.90
32187;DHT22;18686;53.084;8.872;2023-02-13T09:23:53;9.50;99.90
32187;DHT22;18686;53.084;8.872;2023-02-13T09:26:21;9.50;99.90
32187;DHT22;18686;53.084;8.872;2023-02-13T09:28:49;9.60;99.90
32187;DHT22;18686;53.084;8.872;2023-02-13T09:31:19;9.60;99.90
32187;DHT22;18686;53.084;8.872;2023-02-13T09:33:51;9.60;99.90
32187;DHT22;18686;53.084;8.872;2023-02-13T09:36:21;9.60;99.90
32187;DHT22;18686;53.084;8.872;2023-02-13T09:38:52;9.60;99.90
32187;DHT22;18686;53.084;8.872;2023-02-13T09:41:22;9.70;99.90
32187;DHT22;18686;53.084;8.872;2023-02-13T09:43:54;9.70;99.90
32187;DHT22;18686;53.084;8.872;2023-02-13T09:46:28;9.80;99.90
32187;DHT22;18686;53.084;8.872;2023-02-13T09:49:02;9.80;99.90
32187;DHT22;18686;53.084;8.872;2023-02-13T09:51:32;9.90;99.90
32187;DHT22;18686;53.084;8.872;2023-02-13T09:54:02;9.90;99.90
32187;DHT22;18686;53.084;8.872;2023-02-13T09:56:39;10.00;99.90
32187;DHT22;18686;53.084;8.872;2023-02-13T09:59:16;10.00;99.90
32187;DHT22;18686;53.084;8.872;2023-02-13T10:01:48;10.10;99.90
32187;DHT22;18686;53.084;8.872;2023-02-13T10:04:28;10.10;99.90
32187;DHT22;18686;53.084;8.872;2023-02-13T10:07:08;10.10;99.90
32187;DHT22;18686;53.084;8.872;2023-02-13T10:09:45;10.20;99.90
32187;DHT22;18686;53.084;8.872;2023-02-13T10:12:29;10.30;99.90
32187;DHT22;18686;53.084;8.872;2023-02-13T10:15:07;10.20;99.90
32187;DHT22;18686;53.084;8.872;2023-02-13T10:17:43;10.30;99.90
32187;DHT22;18686;53.084;8.872;2023-02-13T10:20:24;10.30;99.90
32187;DHT22;18686;53.084;8.872;2023-02-13T10:22:58;10.30;99.90
32187;DHT22;18686;53.084;8.872;2023-02-13T10:25:34;10.30;99.90
32187;DHT22;18686;53.084;8.872;2023-02-13T10:28:10;10.30;99.90
32187;DHT22;18686;53.084;8.872;2023-02-13T10:30:47;10.30;99.90
32187;DHT22;18686;53.084;8.872;2023-02-13T10:33:18;10.30;99.90
32187;DHT22;18686;53.084;8.872;2023-02-13T10:36:03;10.30;99.90
32187;DHT22;18686;53.084;8.872;2023-02-13T10:38:34;10.30;99.90
32187;DHT22;18686;53.084;8.872;2023-02-13T10:41:07;10.30;99.90
32187;DHT22;18686;53.084;8.872;2023-02-13T10:43:47;10.40;99.90
32187;DHT22;18686;53.084;8.872;2023-02-13T10:46:23;10.30;99.90
32187;DHT22;18686;53.084;8.872;2023-02-13T10:49:01;10.40;99.90
32187;DHT22;18686;53.084;8.872;2023-02-13T10:51:40;10.40;99.90
32187;DHT22;18686;53.084;8.872;2023-02-13T10:54:27;10.40;99.90
32187;DHT22;18686;53.084;8.872;2023-02-13T10:57:05;10.40;99.90
32187;DHT22;18686;53.084;8.872;2023-02-13T10:59:50;10.40;99.90
32187;DHT22;18686;53.084;8.872;2023-02-13T11:02:24;10.40;99.90
32187;DHT22;18686;53.084;8.872;2023-02-13T11:04:58;10.40;99.90
32187;DHT22;18686;53.084;8.872;2023-02-13T11:07:29;10.40;99.90
32187;DHT22;18686;53.084;8.872;2023-02-13T11:10:03;10.40;99.90
32187;DHT22;18686;53.084;8.872;2023-02-13T11:12:33;10.40;99.90
32187;DHT22;18686;53.084;8.872;2023-02-13T11:15:04;10.40;99.90
32187;DHT22;18686;53.084;8.872;2023-02-13T11:17:34;10.40;99.90
32187;DHT22;18686;53.084;8.872;2023-02-13T11:20:06;10.40;99.90
32187;DHT22;18686;53.084;8.872;2023-02-13T11:22:38;10.40;99.90
32187;DHT22;18686;53.084;8.872;2023-02-13T11:25:17;10.40;99.90
32187;DHT22;18686;53.084;8.872;2023-02-13T11:27:49;10.40;99.90
32187;DHT22;18686;53.084;8.872;2023-02-13T11:30:30;10.40;99.90
32187;DHT22;18686;53.084;8.872;2023-02-13T11:33:04;10.40;99.90
32187;DHT22;18686;53.084;8.872;2023-02-13T11:35:34;10.40;99.90
32187;DHT22;18686;53.084;8.872;2023-02-13T11:38:21;10.30;99.90
32187;DHT22;18686;53.084;8.872;2023-02-13T11:40:52;10.30;99.90
32187;DHT22;18686;53.084;8.872;2023-02-13T11:43:33;10.30;99.90
32187;DHT22;18686;53.084;8.872;2023-02-13T11:46:05;10.30;99.90
32187;DHT22;18686;53.084;8.872;2023-02-13T11:48:35;10.30;99.90
32187;DHT22;18686;53.084;8.872;2023-02-13T11:51:03;10.30;99.90
32187;DHT22;18686;53.084;8.872;2023-02-13T11:53:36;10.40;99.90
32187;DHT22;18686;53.084;8.872;2023-02-13T11:56:10;10.50;99.90
32187;DHT22;18686;53.084;8.872;2023-02-13T11:58:39;10.60;99.90
32187;DHT22;18686;53.084;8.872;2023-02-13T12:01:14;10.60;99.90
32187;DHT22;18686;53.084;8.872;2023-02-13T12:04:03;10.80;99.90
32187;DHT22;18686;53.084;8.872;2023-02-13T12:06:33;10.80;99.90
32187;DHT22;18686;53.084;8.872;2023-02-13T12:09:13;10.80;99.90
32187;DHT22;18686;53.084;8.872;2023-02-13T12:11:45;10.90;99.90
32187;DHT22;18686;53.084;8.872;2023-02-13T12:14:19;10.90;99.90
32187;DHT22;18686;53.084;8.872;2023-02-13T12:16:50;11.00;99.90
32187;DHT22;18686;53.084;8.872;2023-02-13T12:19:23;11.00;99.90
32187;DHT22;18686;53.084;8.872;2023-02-13T12:22:11;11.00;99.90
32187;DHT22;18686;53.084;8.872;2023-02-13T12:25:15;11.00;99.90
32187;DHT22;18686;53.084;8.872;2023-02-13T12:27:54;11.00;99.90
32187;DHT22;18686;53.084;8.872;2023-02-13T12:30:41;10.90;99.90
32187;DHT22;18686;53.084;8.872;2023-02-13T12:33:22;10.90;99.90
32187;DHT22;18686;53.084;8.872;2023-02-13T12:36:00;10.90;99.90
32187;DHT22;18686;53.084;8.872;2023-02-13T12:38:43;10.90;99.90
32187;DHT22;18686;53.084;8.872;2023-02-13T12:41:19;10.90;99.90
32187;DHT22;18686;53.084;8.872;2023-02-13T12:43:59;10.90;99.90
32187;DHT22;18686;53.084;8.872;2023-02-13T12:46:34;10.80;99.90
32187;DHT22;18686;53.084;8.872;2023-02-13T12:49:20;10.80;99.90
32187;DHT22;18686;53.084;8.872;2023-02-13T12:51:59;10.80;99.90
32187;DHT22;18686;53.084;8.872;2023-02-13T12:54:39;10.80;99.90
32187;DHT22;18686;53.084;8.872;2023-02-13T12:57:21;10.80;99.90
32187;DHT22;18686;53.084;8.872;2023-02-13T13:00:08;10.80;99.90
32187;DHT22;18686;53.084;8.872;2023-02-13T13:02:49;10.70;99.90
32187;DHT22;18686;53.084;8.872;2023-02-13T13:05:37;10.70;99.90
32187;DHT22;18686;53.084;8.872;2023-02-13T13:08:28;10.60;99.90
32187;DHT22;18686;53.084;8.872;2023-02-13T13:11:11;10.60;99.90
32187;DHT22;18686;53.084;8.872;2023-02-13T13:13:53;10.50;99.90
32187;DHT22;18686;53.084;8.872;2023-02-13T13:16:34;10.50;99.90
32187;DHT22;18686;53.084;8.872;2023-02-13T13:19:15;10.40;99.90
32187;DHT22;18686;53.084;8.872;2023-02-13T13:21:48;10.40;99.90
32187;DHT22;18686;53.084;8.872;2023-02-13T13:24:31;10.40;99.90
32187;DHT22;18686;53.084;8.872;2023-02-13T13:27:01;10.30;99.90
32187;DHT22;18686;53.084;8.872;2023-02-13T13:29:37;10.30;99.90
32187;DHT22;18686;53.084;8.872;2023-02-13T13:32:08;10.30;99.90
32187;DHT22;18686;53.084;8.872;2023-02-13T13:34:39;10.30;99.90
32187;DHT22;18686;53.084;8.872;2023-02-13T13:37:13;10.20;99.90
32187;DHT22;18686;53.084;8.872;2023-02-13T13:39:48;10.20;99.90
32187;DHT22;18686;53.084;8.872;2023-02-13T13:42:26;10.20;99.90
32187;DHT22;18686;53.084;8.872;2023-02-13T13:45:10;10.30;99.90
32187;DHT22;18686;53.084;8.872;2023-02-13T13:48:03;10.20;99.90
32187;DHT22;18686;53.084;8.872;2023-02-13T13:50:37;10.30;99.90
32187;DHT22;18686;53.084;8.872;2023-02-13T13:53:10;10.30;99.90
32187;DHT22;18686;53.084;8.872;2023-02-13T13:55:59;10.30;99.90
32187;DHT22;18686;53.084;8.872;2023-02-13T13:58:34;10.40;99.90
32187;DHT22;18686;53.084;8.872;2023-02-13T14:01:24;10.40;99.90
32187;DHT22;18686;53.084;8.872;2023-02-13T14:03:54;10.40;99.90
32187;DHT22;18686;53.084;8.872;2023-02-13T14:06:25;10.40;99.90
32187;DHT22;18686;53.084;8.872;2023-02-13T14:09:05;10.40;99.90
32187;DHT22;18686;53.084;8.872;2023-02-13T14:11:42;10.50;99.90
32187;DHT22;18686;53.084;8.872;2023-02-13T14:17:53;10.50;99.90
32187;DHT22;18686;53.084;8.872;2023-02-13T14:20:37;10.50;99.90
32187;DHT22;18686;53.084;8.872;2023-02-13T14:23:36;10.50;99.90
32187;DHT22;18686;53.084;8.872;2023-02-13T14:29:20;10.60;99.90
32187;DHT22;18686;53.084;8.872;2023-02-13T14:31:58;10.60;99.90
32187;DHT22;18686;53.084;8.872;2023-02-13T14:34:33;10.60;99.90
32187;DHT22;18686;53.084;8.872;2023-02-13T14:37:18;10.60;99.90
32187;DHT22;18686;53.084;8.872;2023-02-13T14:40:26;10.50;99.90
32187;DHT22;18686;53.084;8.872;2023-02-13T14:42:59;10.50;99.90
32187;DHT22;18686;53.084;8.872;2023-02-13T14:45:30;10.50;99.90
32187;DHT22;18686;53.084;8.872;2023-02-13T14:48:05;10.50;99.90
32187;DHT22;18686;53.084;8.872;2023-02-13T14:50:42;10.50;99.90
32187;DHT22;18686;53.084;8.872;2023-02-13T14:53:19;10.40;99.90
32187;DHT22;18686;53.084;8.872;2023-02-13T14:55:54;10.40;99.90
32187;DHT22;18686;53.084;8.872;2023-02-13T14:58:27;10.30;99.90
32187;DHT22;18686;53.084;8.872;2023-02-13T15:00:59;10.30;99.90
32187;DHT22;18686;53.084;8.872;2023-02-13T15:03:35;10.20;99.90
32187;DHT22;18686;53.084;8.872;2023-02-13T15:06:11;10.20;99.90
32187;DHT22;18686;53.084;8.872;2023-02-13T15:08:46;10.20;99.90
32187;DHT22;18686;53.084;8.872;2023-02-13T15:11:34;10.10;99.90
32187;DHT22;18686;53.084;8.872;2023-02-13T15:14:16;10.10;99.90
32187;DHT22;18686;53.084;8.872;2023-02-13T15:16:47;10.10;99.90
32187;DHT22;18686;53.084;8.872;2023-02-13T15:19:19;10.10;99.90
32187;DHT22;18686;53.084;8.872;2023-02-13T15:21:51;10.00;99.90
32187;DHT22;18686;53.084;8.872;2023-02-13T15:24:21;10.00;99.90
32187;DHT22;18686;53.084;8.872;2023-02-13T15:26:56;9.90;99.90
32187;DHT22;18686;53.084;8.872;2023-02-13T15:29:26;9.90;99.90
32187;DHT22;18686;53.084;8.872;2023-02-13T15:32:18;9.90;99.90
32187;DHT22;18686;53.084;8.872;2023-02-13T15:34:47;9.80;99.90
32187;DHT22;18686;53.084;8.872;2023-02-13T15:37:22;9.80;99.90
32187;DHT22;18686;53.084;8.872;2023-02-13T15:39:50;9.70;99.90
32187;DHT22;18686;53.084;8.872;2023-02-13T15:42:19;9.70;99.90
32187;DHT22;18686;53.084;8.872;2023-02-13T15:44:49;9.70;99.90
32187;DHT22;18686;53.084;8.872;2023-02-13T15:47:22;9.60;99.90
32187;DHT22;18686;53.084;8.872;2023-02-13T15:49:52;9.60;99.90
32187;DHT22;18686;53.084;8.872;2023-02-13T15:52:28;9.50;99.90
32187;DHT22;18686;53.084;8.872;2023-02-13T15:54:57;9.50;99.90
32187;DHT22;18686;53.084;8.872;2023-02-13T15:57:26;9.40;99.90
32187;DHT22;18686;53.084;8.872;2023-02-13T15:59:56;9.40;99.90
32187;DHT22;18686;53.084;8.872;2023-02-13T16:02:32;9.40;99.90
32187;DHT22;18686;53.084;8.872;2023-02-13T16:05:06;9.30;99.90
32187;DHT22;18686;53.084;8.872;2023-02-13T16:07:48;9.30;99.90
32187;DHT22;18686;53.084;8.872;2023-02-13T16:10:25;9.30;99.90
32187;DHT22;18686;53.084;8.872;2023-02-13T16:12:55;9.20;99.90
32187;DHT22;18686;53.084;8.872;2023-02-13T16:15:26;9.20;99.90
32187;DHT22;18686;53.084;8.872;2023-02-13T16:17:56;9.10;99.90
32187;DHT22;18686;53.084;8.872;2023-02-13T16:20:26;9.10;99.90
32187;DHT22;18686;53.084;8.872;2023-02-13T16:22:59;9.10;99.90
32187;DHT22;18686;53.084;8.872;2023-02-13T16:25:31;9.10;99.90
32187;DHT22;18686;53.084;8.872;2023-02-13T16:28:01;9.00;99.90
32187;DHT22;18686;53.084;8.872;2023-02-13T16:30:33;9.00;99.90
32187;DHT22;18686;53.084;8.872;2023-02-13T16:33:26;8.90;99.90